Time;durP1;ratioP1;P1;durP2;ratioP2;P2;SDS_P1;SDS_P2;PMS_P1;PMS_P2;Temp;Humidity;BMP_temperature;BMP_pressure;BME280_temperature;BME280_humidity;BME280_pressure;Samples;Min_cycle;Max_cycle;Signal;HPM_P1;HPM_P2
2023/08/31 00:01:39;;;;;;;12.43;6.85;;;;;;;14.15;82.41;99086.31;4842916;29;20089;-59
2023/08/31 00:04:08;;;;;;;11.10;6.60;;;;;;;14.15;82.25;99090.81;4859784;29;20500;-58
2023/08/31 00:06:34;;;;;;;8.68;6.50;;;;;;;14.15;82.80;99096.97;4858765;29;20056;-58
2023/08/31 00:08:59;;;;;;;11.88;8.27;;;;;;;14.15;82.82;99099.66;4859466;29;20049;-56
2023/08/31 00:11:25;;;;;;;12.20;7.40;;;;;;;14.16;82.62;99092.44;4858020;29;20556;-59
2023/08/31 00:13:52;;;;;;;10.77;7.60;;;;;;;14.17;83.07;99086.84;4858224;29;20042;-58
2023/08/31 00:16:17;;;;;;;10.05;7.40;;;;;;;14.21;82.77;99100.44;4824371;29;20505;-57
2023/08/31 00:18:45;;;;;;;10.45;7.53;;;;;;;14.23;82.99;99099.09;4839420;29;20137;-58
2023/08/31 00:21:11;;;;;;;14.73;7.40;;;;;;;14.23;82.90;99090.28;4847925;29;20112;-59
2023/08/31 00:23:36;;;;;;;10.85;7.35;;;;;;;14.23;83.03;99087.63;4858201;29;20046;-58
2023/08/31 00:26:02;;;;;;;9.85;7.13;;;;;;;14.21;83.34;99092.44;4857785;29;20513;-59
2023/08/31 00:28:28;;;;;;;12.18;7.90;;;;;;;14.18;83.60;99087.66;4859580;29;20072;-58
2023/08/31 00:30:54;;;;;;;11.70;7.68;;;;;;;14.16;84.08;99082.56;4859144;29;20053;-58
2023/08/31 00:33:20;;;;;;;10.70;7.82;;;;;;;14.14;83.70;99089.25;4857808;29;20061;-57
2023/08/31 00:35:46;;;;;;;14.02;8.07;;;;;;;14.11;83.75;99085.25;4857872;29;20125;-57
2023/08/31 00:38:12;;;;;;;11.98;8.05;;;;;;;14.12;83.99;99091.38;4858910;29;20081;-57
2023/08/31 00:40:42;;;;;;;11.93;8.10;;;;;;;14.09;84.54;99088.19;4858961;29;20045;-58
2023/08/31 00:43:08;;;;;;;12.40;8.50;;;;;;;14.09;84.54;99095.38;4857573;29;20088;-58
2023/08/31 00:45:34;;;;;;;11.18;8.43;;;;;;;14.07;84.57;99092.19;4857456;29;20037;-58
2023/08/31 00:48:00;;;;;;;15.15;8.95;;;;;;;14.06;85.06;99096.72;4842435;29;20428;-54
2023/08/31 00:50:26;;;;;;;15.88;8.77;;;;;;;14.04;85.03;99093.50;4858682;29;20051;-59
2023/08/31 00:52:52;;;;;;;17.13;9.93;;;;;;;14.06;85.22;99106.59;4842138;29;20053;-58
2023/08/31 00:55:17;;;;;;;15.63;10.15;;;;;;;14.06;85.38;99101.25;4856908;29;20512;-59
2023/08/31 00:57:45;;;;;;;19.27;11.82;;;;;;;14.08;85.39;99101.75;4857488;29;20053;-58
2023/08/31 01:00:12;;;;;;;18.98;13.05;;;;;;;14.10;85.19;99110.31;4858925;29;20056;-59
2023/08/31 01:02:48;;;;;;;23.38;13.18;;;;;;;14.11;85.32;99103.09;4857439;29;20542;-59
2023/08/31 01:05:24;;;;;;;17.60;13.23;;;;;;;14.11;85.53;99097.78;4842613;29;20053;-57
2023/08/31 01:08:02;;;;;;;18.33;11.50;;;;;;;14.09;85.35;99093.53;4859665;29;20053;-56
2023/08/31 01:10:31;;;;;;;16.50;10.85;;;;;;;14.04;85.37;99101.50;4845709;29;20049;-58
2023/08/31 01:13:02;;;;;;;17.20;10.25;;;;;;;13.99;85.74;99092.72;4861270;29;20050;-58
2023/08/31 01:15:31;;;;;;;18.50;11.75;;;;;;;13.93;85.97;99083.91;4846515;29;20128;-56
2023/08/31 01:17:58;;;;;;;22.20;14.35;;;;;;;13.88;86.30;99091.09;4861857;29;20064;-57
2023/08/31 01:20:47;;;;;;;18.63;13.00;;;;;;;13.84;86.83;99088.97;4861500;29;20144;-59
2023/08/31 01:23:18;;;;;;;17.98;11.75;;;;;;;13.83;87.40;99091.91;4861965;29;20045;-56
2023/08/31 01:25:45;;;;;;;22.88;12.95;;;;;;;13.83;87.79;99086.59;4862127;29;20049;-58
2023/08/31 01:28:12;;;;;;;17.48;13.00;;;;;;;13.84;87.52;99082.84;4861684;29;20050;-57
2023/08/31 01:30:37;;;;;;;22.08;12.90;;;;;;;13.86;87.75;99080.72;4845801;29;20045;-58
2023/08/31 01:33:03;;;;;;;20.40;13.30;;;;;;;13.84;87.34;99080.19;4861293;29;20501;-57
2023/08/31 01:35:46;;;;;;;25.27;13.85;;;;;;;13.81;87.55;99076.19;4862163;29;20053;-58
2023/08/31 01:38:16;;;;;;;21.13;12.38;;;;;;;13.76;88.03;99076.19;4846490;29;20049;-57
2023/08/31 01:40:44;;;;;;;18.77;12.57;;;;;;;13.80;88.15;99077.25;4861811;29;20512;-57
2023/08/31 01:43:10;;;;;;;20.40;12.43;;;;;;;13.83;87.98;99074.06;4862632;29;20106;-57
2023/08/31 01:45:37;;;;;;;19.63;12.32;;;;;;;13.86;88.04;99084.19;4845474;29;20072;-58
2023/08/31 01:48:04;;;;;;;19.58;12.63;;;;;;;13.91;87.63;99086.03;4862547;29;20151;-59
2023/08/31 01:50:30;;;;;;;17.77;10.80;;;;;;;13.95;87.01;99079.13;4860637;29;20050;-58
2023/08/31 01:52:56;;;;;;;21.08;10.32;;;;;;;13.96;86.92;99080.72;4861020;29;20049;-58
2023/08/31 01:55:22;;;;;;;15.57;8.85;;;;;;;13.98;86.71;99081.25;4860631;29;20053;-58
2023/08/31 01:57:48;;;;;;;14.82;9.07;;;;;;;14.02;87.20;99087.63;4845538;29;20054;-58
2023/08/31 02:00:20;;;;;;;16.08;8.90;;;;;;;14.05;86.99;99078.31;4860548;29;20094;-58
2023/08/31 02:02:49;;;;;;;15.73;8.75;;;;;;;14.04;86.94;99076.72;4861857;29;20085;-59
2023/08/31 02:05:14;;;;;;;15.25;9.43;;;;;;;14.02;87.30;99074.31;4860479;29;20152;-58
2023/08/31 02:07:40;;;;;;;18.63;10.40;;;;;;;14.03;87.61;99085.78;4860455;29;20049;-58
2023/08/31 02:10:06;;;;;;;18.58;9.68;;;;;;;14.02;87.54;99084.19;4861787;29;20090;-58
2023/08/31 02:12:36;;;;;;;17.75;10.05;;;;;;;14.00;87.91;99081.81;4861752;29;20485;-57
2023/08/31 02:15:04;;;;;;;;;;;;;;;13.97;88.24;99082.34;4862275;29;20102;-57
2023/08/31 02:17:30;;;;;;;16.95;9.98;;;;;;;13.93;88.38;99088.44;4861766;29;19923;-57
2023/08/31 02:19:57;;;;;;;25.45;10.45;;;;;;;13.85;88.41;99077.28;4860419;29;20562;-61
2023/08/31 02:22:23;;;;;;;22.02;10.90;;;;;;;13.81;88.89;99073.53;4859633;29;20053;-58
2023/08/31 02:24:49;;;;;;;21.60;11.50;;;;;;;13.73;89.56;99074.03;4860863;29;20056;-58
2023/08/31 02:27:14;;;;;;;23.40;11.35;;;;;;;13.71;89.83;99080.72;4829262;29;20117;-57
2023/08/31 02:29:40;;;;;;;21.30;11.52;;;;;;;13.68;90.00;99073.25;4861500;29;20078;-57
2023/08/31 02:32:06;;;;;;;20.95;11.73;;;;;;;13.67;90.40;99075.09;4861163;29;20047;-58
2023/08/31 02:34:33;;;;;;;23.15;12.07;;;;;;;13.68;90.90;99068.72;4860174;29;20053;-58
2023/08/31 02:36:58;;;;;;;17.48;12.18;;;;;;;13.68;90.71;99076.72;4861432;29;20041;-59
2023/08/31 02:39:27;;;;;;;21.08;12.52;;;;;;;13.70;90.64;99077.25;4861216;29;20069;-58
2023/08/31 02:41:52;;;;;;;21.38;13.30;;;;;;;13.71;90.54;99078.84;4848467;29;20042;-57
2023/08/31 02:44:18;;;;;;;20.17;13.35;;;;;;;13.72;90.65;99069.00;4843132;29;20439;-59
2023/08/31 02:46:44;;;;;;;28.77;13.90;;;;;;;13.74;90.74;99072.19;4841305;29;20045;-57
2023/08/31 02:49:11;;;;;;;23.67;13.15;;;;;;;13.76;90.69;99070.84;4826192;29;20045;-57
2023/08/31 02:51:36;;;;;;;20.02;12.38;;;;;;;13.79;90.26;99072.97;4842494;29;20556;-58
2023/08/31 02:54:03;;;;;;;23.25;12.98;;;;;;;13.86;90.18;99076.19;4841724;29;20046;-58
2023/08/31 02:56:29;;;;;;;20.38;12.43;;;;;;;13.93;89.56;99078.59;4841057;29;20090;-57
2023/08/31 02:58:55;;;;;;;23.63;13.43;;;;;;;14.01;89.61;99077.25;4826179;29;20058;-59
2023/08/31 03:01:23;;;;;;;23.58;14.15;;;;;;;14.12;89.07;99070.03;4810072;29;20438;-58
2023/08/31 03:03:50;;;;;;;20.73;14.32;;;;;;;14.23;88.73;99075.09;4841394;29;20045;-58
2023/08/31 03:06:16;;;;;;;22.92;13.30;;;;;;;14.37;87.96;99067.34;4841354;29;20046;-60
2023/08/31 03:08:42;;;;;;;28.50;15.02;;;;;;;14.45;86.82;99064.13;4858022;29;20046;-57
2023/08/31 03:11:08;;;;;;;27.02;13.68;;;;;;;14.52;86.66;99055.88;4860830;29;20078;-58
2023/08/31 03:13:35;;;;;;;23.27;14.82;;;;;;;14.59;86.21;99060.91;4859757;29;20357;-57
2023/08/31 03:16:02;;;;;;;27.33;14.07;;;;;;;14.72;85.42;99063.03;4859111;29;20065;-57
2023/08/31 03:18:28;;;;;;;23.85;13.65;;;;;;;14.84;84.73;99063.50;4859503;29;20049;-58
2023/08/31 03:20:55;;;;;;;20.95;12.52;;;;;;;14.94;84.16;99065.31;4858994;29;20061;-58
2023/08/31 03:23:21;;;;;;;20.90;12.60;;;;;;;15.05;83.30;99072.22;4859476;29;20049;-58
2023/08/31 03:25:46;;;;;;;21.13;12.60;;;;;;;15.08;83.16;99074.34;4859309;29;20137;-59
2023/08/31 03:28:12;;;;;;;18.67;12.27;;;;;;;15.08;83.17;99073.53;4859774;29;20069;-57
2023/08/31 03:30:38;;;;;;;19.75;13.13;;;;;;;15.05;82.71;99061.53;4843376;29;20496;-59
2023/08/31 03:33:04;;;;;;;20.55;12.45;;;;;;;15.03;82.70;99068.22;4859724;29;20049;-58
2023/08/31 03:35:32;;;;;;;21.95;13.55;;;;;;;15.04;83.21;99077.84;4843776;29;20053;-58
2023/08/31 03:37:59;;;;;;;22.05;13.82;;;;;;;15.04;83.31;99069.84;4858874;29;20472;-58
2023/08/31 03:40:26;;;;;;;24.58;14.80;;;;;;;15.07;83.33;99077.28;4859026;29;20127;-59
2023/08/31 03:42:53;;;;;;;24.20;14.02;;;;;;;15.07;82.87;99074.63;4857826;29;20049;-57
2023/08/31 03:45:19;;;;;;;26.42;14.85;;;;;;;15.15;82.27;99079.41;4859034;29;20171;-58
2023/08/31 03:47:45;;;;;;;22.05;14.35;;;;;;;15.20;82.61;99082.81;4860131;29;20385;-58
2023/08/31 03:50:11;;;;;;;22.90;14.45;;;;;;;15.25;82.04;99086.56;4859961;29;20132;-60
2023/08/31 03:52:36;;;;;;;26.00;14.57;;;;;;;15.25;81.91;99086.56;4858594;29;20136;-59
2023/08/31 03:55:02;;;;;;;27.98;17.08;;;;;;;15.33;82.04;99097.47;4858684;29;20045;-59
2023/08/31 03:57:29;;;;;;;25.58;16.33;;;;;;;15.38;81.86;99101.97;4859892;29;20093;-58
2023/08/31 04:00:00;;;;;;;25.73;15.45;;;;;;;15.41;81.11;99102.22;4843979;29;20483;-58
2023/08/31 04:02:27;;;;;;;22.63;13.75;;;;;;;15.43;81.20;99096.59;4859956;29;20101;-59
2023/08/31 04:04:52;;;;;;;25.52;14.80;;;;;;;15.50;80.81;99094.44;4858608;29;20305;-59
2023/08/31 04:07:18;;;;;;;20.83;14.43;;;;;;;15.62;80.42;99100.22;4858240;29;20050;-58
2023/08/31 04:09:43;;;;;;;21.23;13.52;;;;;;;15.87;79.34;99093.13;4859685;29;20049;-60
2023/08/31 04:12:09;;;;;;;21.23;13.68;;;;;;;16.14;78.43;99097.97;4858330;29;20060;-57
2023/08/31 04:14:35;;;;;;;20.80;13.15;;;;;;;16.28;77.38;99098.91;4859612;29;20065;-60
2023/08/31 04:17:00;;;;;;;19.50;12.27;;;;;;;16.45;76.53;99098.50;4858068;29;20084;-58
2023/08/31 04:19:26;;;;;;;20.02;12.55;;;;;;;16.54;75.95;99101.34;4859384;29;20049;-59
2023/08/31 04:21:51;;;;;;;21.55;11.93;;;;;;;16.57;75.70;99103.47;4859116;29;20045;-57
2023/08/31 04:24:17;;;;;;;17.48;11.95;;;;;;;16.68;75.11;99114.88;4859517;29;20424;-60
2023/08/31 04:26:44;;;;;;;19.35;12.20;;;;;;;16.71;74.73;99111.63;4859345;29;20041;-58
2023/08/31 04:29:09;;;;;;;20.42;12.18;;;;;;;16.74;74.55;99111.84;4859672;29;20056;-58
2023/08/31 04:31:35;;;;;;;23.33;12.95;;;;;;;16.70;74.76;99110.00;4859037;29;20049;-60
2023/08/31 04:34:00;;;;;;;23.90;12.88;;;;;;;16.64;74.90;99113.81;4859282;29;20045;-58
2023/08/31 04:36:26;;;;;;;18.85;12.07;;;;;;;16.58;75.22;99110.41;4859187;29;20037;-56
2023/08/31 04:38:52;;;;;;;24.63;12.90;;;;;;;16.48;75.20;99122.00;4859673;29;20102;-58
2023/08/31 04:41:18;;;;;;;21.20;12.52;;;;;;;16.39;75.79;99121.03;4857754;29;20041;-59
2023/08/31 04:43:44;;;;;;;21.70;12.25;;;;;;;16.33;75.94;99127.50;4858945;29;20046;-58
2023/08/31 04:46:10;;;;;;;21.50;12.75;;;;;;;16.32;76.12;99120.53;4858329;29;20560;-59
2023/08/31 04:48:36;;;;;;;20.83;12.45;;;;;;;16.29;76.30;99110.41;4859433;29;20484;-59
2023/08/31 04:51:03;;;;;;;21.50;12.85;;;;;;;16.24;76.14;99111.28;4859198;29;20102;-60
2023/08/31 04:53:30;;;;;;;22.92;12.77;;;;;;;16.23;76.45;99106.97;4857240;29;20041;-57
2023/08/31 04:55:55;;;;;;;22.25;13.98;;;;;;;16.29;76.38;99111.19;4858909;29;20049;-58
2023/08/31 04:58:21;;;;;;;23.88;14.02;;;;;;;16.29;76.59;99100.50;4859160;29;20404;-57
2023/08/31 05:00:47;;;;;;;24.23;14.00;;;;;;;16.34;76.12;99105.03;4857056;29;20106;-59
2023/08/31 05:03:13;;;;;;;26.67;13.05;;;;;;;16.39;75.98;99109.53;4857761;29;20136;-58
2023/08/31 05:05:39;;;;;;;25.23;13.52;;;;;;;16.45;75.99;99109.19;4858887;29;20137;-60
2023/08/31 05:08:05;;;;;;;24.23;14.02;;;;;;;16.51;75.68;99118.78;4857837;29;20053;-58
2023/08/31 05:10:30;;;;;;;29.60;14.52;;;;;;;16.58;75.34;99113.88;4858922;29;20057;-58
2023/08/31 05:12:56;;;;;;;22.17;14.27;;;;;;;16.58;75.33;99115.75;4857231;29;20052;-58
2023/08/31 05:15:22;;;;;;;28.25;14.77;;;;;;;16.63;75.04;99126.41;4858613;29;20050;-60
2023/08/31 05:17:48;;;;;;;21.40;13.13;;;;;;;16.73;74.98;99126.28;4856460;29;20548;-55
2023/08/31 05:20:14;;;;;;;24.40;14.55;;;;;;;16.87;74.58;99137.16;4793952;29;20054;-56
2023/08/31 05:22:40;;;;;;;22.85;14.05;;;;;;;17.00;73.80;99133.00;4808702;29;20050;-53
2023/08/31 05:25:07;;;;;;;25.52;14.60;;;;;;;17.11;73.19;99133.69;4793512;29;20080;-60
2023/08/31 05:27:33;;;;;;;21.63;13.73;;;;;;;17.23;72.74;99142.09;4808400;29;20462;-57
2023/08/31 05:29:58;;;;;;;24.38;14.38;;;;;;;17.34;72.15;99143.56;4793943;29;20058;-58
2023/08/31 05:32:28;;;;;;;21.63;13.55;;;;;;;17.36;71.90;99136.03;4802404;29;20427;-59
2023/08/31 05:34:53;;;;;;;27.92;13.80;;;;;;;17.40;71.82;99137.06;4857185;29;20481;-58
2023/08/31 05:37:19;;;;;;;23.30;14.35;;;;;;;17.54;71.64;99126.41;4858438;29;20083;-59
2023/08/31 05:39:49;;;;;;;23.20;14.23;;;;;;;17.66;71.08;99129.47;4857099;29;20062;-60
2023/08/31 05:42:14;;;;;;;25.67;15.40;;;;;;;17.73;70.50;99131.78;4858544;29;20085;-58
2023/08/31 05:44:40;;;;;;;22.48;14.60;;;;;;;17.83;70.02;99136.22;4858362;29;20067;-60
2023/08/31 05:47:05;;;;;;;25.27;14.10;;;;;;;17.96;69.38;99145.41;4858360;29;20042;-60
2023/08/31 05:49:31;;;;;;;21.63;13.57;;;;;;;18.09;69.29;99150.06;4858105;29;20171;-60
2023/08/31 05:51:57;;;;;;;26.95;14.68;;;;;;;18.30;68.63;99153.19;4858351;29;20125;-60
2023/08/31 05:54:22;;;;;;;22.08;13.40;;;;;;;18.46;67.57;99159.88;4856729;29;20053;-62
2023/08/31 05:56:48;;;;;;;17.90;12.90;;;;;;;18.57;67.15;99165.88;4861118;29;20140;-61
2023/08/31 05:59:13;;;;;;;20.33;13.05;;;;;;;18.67;67.14;99157.63;4861459;29;20436;-60
2023/08/31 06:01:39;;;;;;;19.17;12.50;;;;;;;18.72;66.36;99154.88;4861698;29;20530;-57
2023/08/31 06:04:05;;;;;;;26.20;14.23;;;;;;;18.63;66.02;99156.63;4861288;29;20050;-60
2023/08/31 06:06:32;;;;;;;21.85;13.52;;;;;;;18.68;65.99;99155.75;4859775;29;20518;-57
2023/08/31 06:08:58;;;;;;;23.10;14.02;;;;;;;18.71;65.66;99158.66;4860408;29;20105;-61
2023/08/31 06:11:23;;;;;;;19.67;14.23;;;;;;;18.74;65.52;99163.44;4861504;29;20124;-60
2023/08/31 06:13:49;;;;;;;26.02;14.40;;;;;;;18.81;66.01;99157.69;4860120;29;20045;-58
2023/08/31 06:16:15;;;;;;;24.15;14.02;;;;;;;18.86;65.44;99157.59;4861422;29;20073;-60
2023/08/31 06:18:40;;;;;;;19.98;13.60;;;;;;;18.92;65.88;99163.66;4861425;29;20044;-59
2023/08/31 06:21:06;;;;;;;23.40;13.82;;;;;;;18.92;65.83;99159.09;4861502;29;20088;-60
2023/08/31 06:23:31;;;;;;;23.60;14.57;;;;;;;18.88;65.73;99155.38;4858814;29;20128;-58
2023/08/31 06:25:57;;;;;;;23.75;14.23;;;;;;;18.82;66.12;99161.94;4860091;29;20056;-58
2023/08/31 06:28:23;;;;;;;23.05;13.75;;;;;;;18.81;65.95;99155.78;4858832;29;20048;-57
2023/08/31 06:30:49;;;;;;;24.08;13.82;;;;;;;18.85;65.90;99158.66;4859725;29;20054;-58
2023/08/31 06:33:15;;;;;;;25.80;14.98;;;;;;;18.95;65.77;99163.88;4828134;29;20045;-59
2023/08/31 06:35:41;;;;;;;22.17;14.55;;;;;;;19.02;65.03;99166.94;4814273;29;20041;-59
2023/08/31 06:38:07;;;;;;;29.30;15.18;;;;;;;19.00;65.08;99161.09;4861349;29;20049;-62
2023/08/31 06:40:34;;;;;;;23.15;14.82;;;;;;;19.03;65.29;99163.19;4814261;29;20045;-59
2023/08/31 06:43:00;;;;;;;24.90;14.80;;;;;;;19.00;66.08;99169.16;4814178;29;20049;-58
2023/08/31 06:45:25;;;;;;;29.52;15.25;;;;;;;19.00;65.37;99160.28;4861169;29;20101;-59
2023/08/31 06:47:51;;;;;;;24.02;15.23;;;;;;;19.12;65.37;99170.50;4811877;29;20133;-58
2023/08/31 06:50:17;;;;;;;23.95;14.68;;;;;;;19.22;65.43;99173.00;4813057;29;20136;-59
2023/08/31 06:52:46;;;;;;;25.63;14.65;;;;;;;19.32;64.98;99162.03;4827722;29;20077;-58
2023/08/31 06:55:12;;;;;;;25.42;15.65;;;;;;;19.38;64.73;99166.22;4813282;29;20049;-58
2023/08/31 06:57:38;;;;;;;21.48;14.95;;;;;;;19.41;64.63;99172.88;4826676;29;20457;-58
2023/08/31 07:00:07;;;;;;;23.60;15.30;;;;;;;19.38;64.64;99165.44;4842552;29;20055;-58
2023/08/31 07:02:34;;;;;;;22.63;13.73;;;;;;;19.39;64.69;99165.13;4843399;29;20105;-55
2023/08/31 07:05:01;;;;;;;23.13;14.25;;;;;;;19.51;63.07;99164.63;4813674;29;20069;-56
2023/08/31 07:07:27;;;;;;;23.00;14.40;;;;;;;19.64;61.91;99169.16;4843246;29;20474;-56
2023/08/31 07:09:54;;;;;;;22.27;13.95;;;;;;;19.74;61.66;99170.88;4827472;29;20041;-59
2023/08/31 07:12:20;;;;;;;24.13;12.75;;;;;;;19.90;61.02;99174.00;4859791;29;20508;-60
2023/08/31 07:14:45;;;;;;;28.98;14.82;;;;;;;19.99;61.98;99166.81;4860625;29;20057;-60
2023/08/31 07:17:11;;;;;;;21.33;13.27;;;;;;;20.05;61.10;99162.88;4860091;29;20062;-59
2023/08/31 07:19:37;;;;;;;25.52;14.00;;;;;;;20.03;61.24;99162.41;4860265;29;20061;-61
2023/08/31 07:22:04;;;;;;;25.35;13.55;;;;;;;20.01;60.76;99164.59;4859983;29;20047;-61
2023/08/31 07:24:30;;;;;;;22.50;13.15;;;;;;;20.02;60.47;99163.50;4859941;29;20576;-61
2023/08/31 07:26:55;;;;;;;25.67;12.55;;;;;;;20.04;60.64;99163.22;4860107;29;20049;-60
2023/08/31 07:29:21;;;;;;;26.23;13.77;;;;;;;20.05;60.36;99167.47;4860376;29;20098;-59
2023/08/31 07:31:46;;;;;;;23.13;12.57;;;;;;;20.08;60.10;99162.28;4858141;29;20512;-61
2023/08/31 07:34:12;;;;;;;19.63;12.18;;;;;;;20.14;59.53;99161.06;4855323;29;20159;-61
2023/08/31 07:36:38;;;;;;;27.52;11.95;;;;;;;20.21;59.00;99168.72;4856237;29;20419;-59
2023/08/31 07:39:04;;;;;;;20.58;11.40;;;;;;;20.32;59.42;99161.16;4858360;29;20053;-59
2023/08/31 07:41:30;;;;;;;19.10;12.35;;;;;;;20.38;58.01;99154.56;4859399;29;20053;-58
2023/08/31 07:43:55;;;;;;;20.17;12.20;;;;;;;20.45;57.85;99152.22;4859691;29;20097;-61
2023/08/31 07:46:21;;;;;;;19.30;12.07;;;;;;;20.41;57.79;99156.63;4859587;29;20060;-61
2023/08/31 07:48:48;;;;;;;20.95;11.90;;;;;;;20.31;57.61;99168.44;4860170;29;20056;-60
2023/08/31 07:51:14;;;;;;;24.20;11.40;;;;;;;20.29;58.09;99165.25;4859643;29;20053;-59
2023/08/31 07:53:40;;;;;;;24.98;12.13;;;;;;;20.37;58.05;99169.13;4860027;29;20078;-59
2023/08/31 07:56:05;;;;;;;23.40;12.57;;;;;;;20.49;57.46;99165.88;4859389;29;20526;-61
2023/08/31 07:58:31;;;;;;;23.13;12.48;;;;;;;20.66;57.22;99163.31;4859886;29;20524;-60
2023/08/31 08:00:56;;;;;;;19.00;11.48;;;;;;;20.82;56.70;99158.28;4859473;29;20061;-59
2023/08/31 08:03:23;;;;;;;17.10;11.77;;;;;;;20.85;56.51;99149.59;4859776;29;20499;-59
2023/08/31 08:05:48;;;;;;;22.83;11.70;;;;;;;20.95;56.26;99156.63;4859430;29;20139;-61
2023/08/31 08:08:14;;;;;;;24.65;12.20;;;;;;;20.98;56.29;99154.09;4859460;29;20073;-60
2023/08/31 08:10:40;;;;;;;20.45;11.07;;;;;;;21.00;55.51;99151.06;4859319;29;20136;-62
2023/08/31 08:13:05;;;;;;;20.13;10.75;;;;;;;20.90;55.85;99157.53;4842776;29;20077;-61
2023/08/31 08:15:31;;;;;;;18.13;10.45;;;;;;;20.90;56.02;99154.06;4858962;29;20086;-59
2023/08/31 08:17:57;;;;;;;19.35;11.48;;;;;;;20.91;56.36;99158.31;4858986;29;20069;-61
2023/08/31 08:20:23;;;;;;;19.60;10.48;;;;;;;21.05;55.84;99153.63;4859209;29;20045;-61
2023/08/31 08:22:53;;;;;;;17.02;10.70;;;;;;;21.32;55.18;99153.41;4859439;29;20129;-60
2023/08/31 08:25:22;;;;;;;19.75;10.75;;;;;;;21.59;54.13;99148.06;4856945;29;20132;-60
2023/08/31 08:27:50;;;;;;;19.13;11.00;;;;;;;21.77;53.87;99146.97;4859390;29;20049;-59
2023/08/31 08:30:16;;;;;;;19.27;10.50;;;;;;;21.88;53.27;99145.50;4858672;29;20053;-60
2023/08/31 08:32:43;;;;;;;18.70;9.93;;;;;;;21.93;53.14;99142.66;4858832;29;20530;-60
2023/08/31 08:35:08;;;;;;;17.13;10.60;;;;;;;21.99;53.04;99148.69;4856451;29;20551;-59
2023/08/31 08:37:34;;;;;;;19.58;10.18;;;;;;;21.97;52.66;99143.63;4858981;29;20049;-57
2023/08/31 08:40:00;;;;;;;21.08;10.07;;;;;;;21.99;52.69;99152.19;4858027;29;20555;-59
2023/08/31 08:42:26;;;;;;;21.65;9.90;;;;;;;22.12;52.40;99152.31;4858853;29;20414;-57
2023/08/31 08:44:52;;;;;;;19.90;9.63;;;;;;;22.22;52.36;99157.44;4842132;29;20503;-59
2023/08/31 08:47:17;;;;;;;20.38;9.25;;;;;;;22.16;51.96;99151.38;4859395;29;20053;-58
2023/08/31 08:49:44;;;;;;;20.23;9.20;;;;;;;22.03;52.39;99146.97;4857355;29;20050;-60
2023/08/31 08:52:12;;;;;;;19.52;9.25;;;;;;;21.97;52.95;99157.13;4859233;29;20094;-60
2023/08/31 08:54:38;;;;;;;19.17;10.15;;;;;;;21.88;53.53;99150.91;4857426;29;20113;-58
2023/08/31 08:57:06;;;;;;;21.42;10.05;;;;;;;21.85;53.08;99156.16;4857685;29;20480;-59
2023/08/31 08:59:32;;;;;;;16.60;8.65;;;;;;;21.91;53.24;99158.41;4858597;29;20483;-58
2023/08/31 09:02:00;;;;;;;14.15;8.88;;;;;;;21.91;53.00;99150.31;4857967;29;20073;-60
2023/08/31 09:04:28;;;;;;;20.67;8.73;;;;;;;21.95;53.19;99148.53;4858439;29;20061;-58
2023/08/31 09:06:56;;;;;;;17.60;9.60;;;;;;;21.99;52.93;99146.78;4857449;29;20480;-58
2023/08/31 09:09:22;;;;;;;18.13;8.10;;;;;;;22.00;50.25;99152.97;4858687;29;20049;-59
2023/08/31 09:11:48;;;;;;;13.88;7.50;;;;;;;22.06;49.43;99151.72;4858307;29;20077;-59
2023/08/31 09:14:18;;;;;;;14.00;7.90;;;;;;;22.12;50.31;99147.75;4858417;29;20092;-59
2023/08/31 09:16:48;;;;;;;17.30;7.90;;;;;;;22.19;51.00;99152.69;4857363;29;20439;-58
2023/08/31 09:19:19;;;;;;;12.05;6.90;;;;;;;22.29;50.38;99148.84;4858211;29;20074;-58
2023/08/31 09:21:46;;;;;;;14.73;7.47;;;;;;;22.31;50.70;99147.41;4856572;29;20112;-59
2023/08/31 09:24:13;;;;;;;17.48;7.43;;;;;;;22.36;50.32;99157.25;4857113;29;20057;-58
2023/08/31 09:26:47;;;;;;;17.13;7.30;;;;;;;22.38;49.29;99158.53;4858769;29;20041;-59
2023/08/31 09:29:13;;;;;;;13.05;7.55;;;;;;;22.35;49.19;99155.66;4857544;29;20563;-57
2023/08/31 09:31:46;;;;;;;15.05;7.65;;;;;;;22.37;49.07;99154.22;4845228;29;20045;-59
2023/08/31 09:34:13;;;;;;;14.82;7.75;;;;;;;22.40;49.83;99150.88;4861939;29;20094;-58
2023/08/31 09:36:39;;;;;;;19.17;8.02;;;;;;;22.41;50.58;99159.78;4845450;29;20052;-59
2023/08/31 09:39:09;;;;;;;15.73;7.90;;;;;;;22.47;50.63;99150.38;4861585;29;20053;-62
2023/08/31 09:41:35;;;;;;;20.95;7.95;;;;;;;22.49;49.82;99158.19;4862160;29;20049;-60
2023/08/31 09:44:17;;;;;;;12.82;7.65;;;;;;;22.50;49.72;99157.06;4861886;29;20087;-60
2023/08/31 09:46:44;;;;;;;12.10;7.15;;;;;;;22.57;49.44;99151.97;4862054;29;20046;-59
2023/08/31 09:49:13;;;;;;;12.57;7.25;;;;;;;22.63;49.44;99151.47;4861716;29;20041;-59
2023/08/31 09:51:39;;;;;;;15.68;8.00;;;;;;;22.70;49.34;99147.47;4845169;29;20045;-59
2023/08/31 09:54:05;;;;;;;11.75;7.43;;;;;;;22.72;48.55;99147.94;4845093;29;20236;-60
2023/08/31 09:56:33;;;;;;;14.27;7.10;;;;;;;22.70;48.10;99145.56;4861853;29;20045;-60
2023/08/31 09:58:59;;;;;;;15.43;7.00;;;;;;;22.73;47.88;99144.91;4861747;29;20056;-60
2023/08/31 10:01:25;;;;;;;14.50;6.97;;;;;;;22.85;48.37;99146.91;4860599;29;20053;-61
2023/08/31 10:03:51;;;;;;;12.32;6.47;;;;;;;22.88;47.20;99148.97;4860990;29;20056;-58
2023/08/31 10:06:18;;;;;;;14.88;6.68;;;;;;;22.93;46.88;99146.09;4860725;29;20045;-59
2023/08/31 10:08:44;;;;;;;14.35;6.53;;;;;;;23.04;46.73;99139.25;4861786;29;20089;-60
2023/08/31 10:11:12;;;;;;;16.13;6.68;;;;;;;23.10;45.59;99139.84;4860408;29;20077;-62
2023/08/31 10:13:43;;;;;;;12.00;5.65;;;;;;;23.19;45.34;99137.88;4860246;29;20052;-56
2023/08/31 10:16:10;;;;;;;8.82;6.30;;;;;;;23.24;44.84;99143.09;4861222;29;20065;-61
2023/08/31 10:18:36;;;;;;;9.80;6.43;;;;;;;23.29;45.30;99139.41;4860275;29;20045;-58
2023/08/31 10:21:03;;;;;;;11.30;6.60;;;;;;;23.27;45.88;99147.06;4861276;29;20057;-59
2023/08/31 10:23:35;;;;;;;10.85;6.00;;;;;;;23.28;45.16;99152.13;4844992;29;20429;-58
2023/08/31 10:26:06;;;;;;;18.42;7.10;;;;;;;23.30;46.25;99149.13;4812285;29;20538;-57
2023/08/31 10:28:42;;;;;;;10.90;6.95;;;;;;;23.40;46.01;99143.31;4861151;29;20041;-56
2023/08/31 10:31:09;;;;;;;11.18;6.90;;;;;;;23.39;46.50;99147.16;4858623;29;20049;-57
2023/08/31 10:33:58;;;;;;;14.25;6.70;;;;;;;23.40;46.14;99145.22;4859437;29;20069;-57
2023/08/31 10:36:38;;;;;;;14.75;6.75;;;;;;;23.40;46.08;99142.53;4859319;29;20117;-58
2023/08/31 10:39:19;;;;;;;16.27;7.30;;;;;;;23.33;46.22;99140.34;4860740;29;20065;-56
2023/08/31 10:41:55;;;;;;;10.98;6.28;;;;;;;23.24;46.17;99139.63;4859214;29;20132;-58
2023/08/31 10:44:25;;;;;;;;;;;;;;;23.26;46.73;99135.44;4860032;29;20049;-59
2023/08/31 10:46:51;;;;;;;10.70;6.57;;;;;;;23.31;46.88;99135.25;4861063;29;19967;-58
2023/08/31 10:49:19;;;;;;;12.38;6.72;;;;;;;23.37;47.29;99135.06;4861085;29;20053;-60
2023/08/31 10:51:58;;;;;;;11.55;6.22;;;;;;;23.37;46.66;99138.56;4856444;29;20053;-59
2023/08/31 10:54:26;;;;;;;9.65;6.75;;;;;;;23.42;46.88;99145.72;4853851;29;20396;-59
2023/08/31 10:56:53;;;;;;;13.27;7.00;;;;;;;23.42;46.47;99140.31;4859668;29;20045;-58
2023/08/31 10:59:20;;;;;;;11.98;6.43;;;;;;;23.40;46.56;99131.72;4860354;29;20053;-59
2023/08/31 11:02:04;;;;;;;11.13;6.18;;;;;;;23.39;46.52;99136.34;4859528;29;20088;-58
2023/08/31 11:04:30;;;;;;;11.55;6.57;;;;;;;23.38;46.25;99137.44;4859170;29;20563;-59
2023/08/31 11:07:16;;;;;;;11.82;6.75;;;;;;;23.40;46.33;99131.72;4859172;29;20056;-60
2023/08/31 11:09:43;;;;;;;11.68;6.70;;;;;;;23.44;46.77;99129.91;4858757;29;20041;-60
2023/08/31 11:12:09;;;;;;;12.50;6.68;;;;;;;23.47;46.36;99126.56;4860558;29;20052;-59
2023/08/31 11:14:35;;;;;;;11.77;6.53;;;;;;;23.50;46.53;99118.59;4860530;29;20457;-60
2023/08/31 11:17:01;;;;;;;13.52;7.15;;;;;;;23.52;46.83;99116.34;4860612;29;20065;-58
2023/08/31 11:19:31;;;;;;;15.57;7.57;;;;;;;23.57;46.37;99118.84;4859021;29;20049;-59